createdAt,value
2019-05-17T00:00:02.245Z,0
2019-05-17T00:01:02.856Z,0
2019-05-17T00:02:03.521Z,0
2019-05-17T00:03:02.707Z,0
2019-05-17T00:04:04.242Z,0
2019-05-17T00:05:06.736Z,0
2019-05-17T00:06:06.636Z,0
2019-05-17T00:07:07.985Z,0
2019-05-17T00:08:08.228Z,0
2019-05-17T00:09:07.133Z,0
2019-05-17T00:10:08.078Z,0
2019-05-17T00:11:08.194Z,0
2019-05-17T00:12:08.581Z,0
2019-05-17T00:13:12.784Z,0
2019-05-17T00:14:11.931Z,0
2019-05-17T00:15:12.563Z,0
2019-05-17T00:16:12.683Z,0
2019-05-17T00:17:12.188Z,0
2019-05-17T00:18:12.547Z,0
2019-05-17T00:19:13.318Z,0
2019-05-17T00:20:13.436Z,0
2019-05-17T00:21:13.818Z,0
2019-05-17T00:22:16.515Z,0
2019-05-17T00:23:14.454Z,0
2019-05-17T00:24:18.238Z,0
2019-05-17T00:25:18.168Z,0
2019-05-17T00:26:18.168Z,0
2019-05-17T00:27:17.850Z,0
2019-05-17T00:28:18.167Z,0
2019-05-17T00:29:18.847Z,0
2019-05-17T00:30:19.684Z,0
2019-05-17T00:31:22.297Z,0
2019-05-17T00:32:22.648Z,0
2019-05-17T00:33:22.430Z,0
2019-05-17T00:34:22.545Z,0
2019-05-17T00:35:23.982Z,0
2019-05-17T00:36:24.049Z,0
2019-05-17T00:37:26.308Z,0
2019-05-17T00:38:27.212Z,0
2019-05-17T00:39:27.678Z,0
2019-05-17T00:40:27.989Z,0
2019-05-17T00:41:28.845Z,0
2019-05-17T00:42:28.008Z,0
2019-05-17T00:43:28.013Z,0
2019-05-17T00:44:27.652Z,0
2019-05-17T00:45:28.636Z,0
2019-05-17T00:46:28.317Z,0
2019-05-17T00:47:29.272Z,0
2019-05-17T00:48:31.881Z,0
2019-05-17T00:49:31.898Z,0
2019-05-17T00:50:33.568Z,0
2019-05-17T00:51:32.869Z,0
2019-05-17T00:52:32.977Z,0
2019-05-17T00:53:33.653Z,0
2019-05-17T00:54:36.152Z,0
2019-05-17T00:55:36.237Z,0
2019-05-17T00:56:37.342Z,0
2019-05-17T00:57:38.024Z,0
2019-05-17T00:58:37.548Z,0
2019-05-17T00:59:37.050Z,0
2019-05-17T01:00:38.820Z,0
2019-05-17T01:01:38.507Z,0
2019-05-17T01:02:38.613Z,0
2019-05-17T01:03:39.019Z,0
2019-05-17T01:04:41.985Z,0
2019-05-17T01:05:42.549Z,0
2019-05-17T01:06:43.361Z,0
2019-05-17T01:07:43.209Z,0
2019-05-17T01:08:42.895Z,0
2019-05-17T01:09:43.260Z,0
2019-05-17T01:10:43.652Z,0
2019-05-17T01:11:43.761Z,0
2019-05-17T01:12:44.162Z,0
2019-05-17T01:13:46.334Z,0
2019-05-17T01:14:47.788Z,0
2019-05-17T01:15:47.933Z,0
2019-05-17T01:16:47.788Z,0
2019-05-17T01:17:48.196Z,0
2019-05-17T01:18:48.878Z,0
2019-05-17T01:19:49.563Z,0
2019-05-17T01:20:53.097Z,0
2019-05-17T01:21:53.197Z,0
2019-05-17T01:22:52.972Z,0
2019-05-17T01:23:52.803Z,0
2019-05-17T01:24:52.717Z,0
2019-05-17T01:25:53.601Z,0
2019-05-17T01:26:53.989Z,0
2019-05-17T01:27:56.325Z,0
2019-05-17T01:28:57.173Z,0
2019-05-17T01:29:57.545Z,0
2019-05-17T01:30:57.312Z,0
2019-05-17T01:31:57.546Z,0
2019-05-17T01:32:58.236Z,0
2019-05-17T01:33:58.344Z,0
2019-05-17T01:35:01.609Z,0
2019-05-17T01:36:02.710Z,0
2019-05-17T01:37:02.672Z,0
2019-05-17T01:38:02.303Z,0
2019-05-17T01:39:14.269Z,0
2019-05-17T01:40:03.671Z,0
2019-05-17T01:41:06.827Z,0
2019-05-17T01:42:06.746Z,0
2019-05-17T01:43:07.785Z,0
2019-05-17T01:44:08.191Z,0
2019-05-17T01:45:07.731Z,0
2019-05-17T01:46:08.407Z,0
2019-05-17T01:47:08.801Z,0
2019-05-17T01:48:09.887Z,0
2019-05-17T01:49:12.655Z,0
2019-05-17T01:50:12.926Z,0
2019-05-17T01:51:13.078Z,0
2019-05-17T01:52:13.026Z,0
2019-05-17T01:53:13.130Z,0
2019-05-17T01:54:13.233Z,0
2019-05-17T01:55:14.156Z,0
2019-05-17T01:56:16.746Z,0
2019-05-17T01:57:16.801Z,0
2019-05-17T01:58:18.096Z,0
2019-05-17T01:59:17.519Z,0
2019-05-17T02:00:17.741Z,0
2019-05-17T02:01:19.155Z,0
2019-05-17T02:02:19.133Z,0
2019-05-17T02:03:19.239Z,0
2019-05-17T02:04:19.720Z,0
2019-05-17T02:05:23.366Z,0
2019-05-17T02:06:22.628Z,0
2019-05-17T02:07:22.792Z,0
2019-05-17T02:08:22.630Z,0
2019-05-17T02:09:47.641Z,0
2019-05-17T02:10:23.445Z,0
2019-05-17T02:11:26.738Z,0
2019-05-17T02:12:26.657Z,0
2019-05-17T02:13:27.417Z,0
2019-05-17T02:14:27.538Z,0
2019-05-17T02:15:27.438Z,0
2019-05-17T02:16:27.477Z,0
2019-05-17T02:17:28.127Z,0
2019-05-17T02:18:28.375Z,0
2019-05-17T02:19:28.437Z,0
2019-05-17T02:20:29.117Z,0
2019-05-17T02:21:29.727Z,0
2019-05-17T02:22:33.191Z,0
2019-05-17T02:23:33.083Z,0
2019-05-17T02:24:33.270Z,0
2019-05-17T02:25:33.004Z,0
2019-05-17T02:26:32.409Z,0
2019-05-17T02:27:49.426Z,0
2019-05-17T02:28:33.831Z,0
2019-05-17T02:29:33.663Z,0
2019-05-17T02:30:34.935Z,0
2019-05-17T02:31:38.958Z,0
2019-05-17T02:32:35.372Z,0
2019-05-17T02:33:38.978Z,0
2019-05-17T02:34:42.782Z,0
2019-05-17T02:35:42.671Z,0
2019-05-17T02:36:42.814Z,0
2019-05-17T02:37:42.925Z,0
2019-05-17T02:38:38.916Z,0
2019-05-17T02:39:53.647Z,0
2019-05-17T02:40:42.792Z,0
2019-05-17T02:41:42.756Z,0
2019-05-17T02:42:42.924Z,0
2019-05-17T02:43:44.884Z,0
2019-05-17T02:44:44.632Z,0
2019-05-17T02:45:44.436Z,0
2019-05-17T02:46:48.448Z,0
2019-05-17T02:47:49.025Z,0
2019-05-17T02:48:48.584Z,0
2019-05-17T02:49:48.201Z,0
2019-05-17T02:50:53.505Z,0
2019-05-17T02:51:48.933Z,0
2019-05-17T02:52:52.747Z,0
2019-05-17T02:53:48.799Z,0
2019-05-17T02:54:52.432Z,0
2019-05-17T02:55:49.195Z,0
2019-05-17T02:56:49.322Z,0
2019-05-17T02:57:52.668Z,0
2019-05-17T02:58:52.982Z,0
2019-05-17T02:59:53.927Z,0
2019-05-17T03:00:59.126Z,0
2019-05-17T03:01:58.429Z,0
2019-05-17T03:02:54.597Z,0
2019-05-17T03:03:58.506Z,0
2019-05-17T03:04:54.235Z,0
2019-05-17T03:05:54.780Z,0
2019-05-17T03:06:59.049Z,4
2019-05-17T03:07:58.626Z,0
2019-05-17T03:08:58.308Z,0
2019-05-17T03:10:24.835Z,4
2019-05-17T03:11:03.006Z,4
2019-05-17T03:12:03.499Z,0
2019-05-17T03:12:58.914Z,0
2019-05-17T03:13:58.787Z,4
2019-05-17T03:15:03.740Z,0
2019-05-17T03:16:04.216Z,4
2019-05-17T03:17:03.221Z,4
2019-05-17T03:18:09.003Z,8
2019-05-17T03:19:04.511Z,8
2019-05-17T03:20:04.430Z,8
2019-05-17T03:21:04.377Z,8
2019-05-17T03:22:13.409Z,8
2019-05-17T03:23:04.515Z,8
2019-05-17T03:24:09.206Z,12
2019-05-17T03:25:09.296Z,12
2019-05-17T03:26:12.726Z,12
2019-05-17T03:27:08.631Z,16
2019-05-17T03:28:08.988Z,20
2019-05-17T03:29:09.530Z,24
2019-05-17T03:30:16.730Z,24
2019-05-17T03:31:17.253Z,28
2019-05-17T03:32:26.342Z,32
2019-05-17T03:33:15.842Z,32
2019-05-17T03:34:16.571Z,40
2019-05-17T03:35:26.321Z,44
2019-05-17T03:36:25.882Z,48
2019-05-17T03:37:43.856Z,56
2019-05-17T03:38:28.497Z,56
2019-05-17T03:39:24.279Z,60
2019-05-17T03:41:29.339Z,64
2019-05-17T03:41:48.687Z,64
2019-05-17T03:42:49.005Z,72
2019-05-17T03:43:53.235Z,80
2019-05-17T03:44:49.317Z,84
2019-05-17T03:45:48.592Z,92
2019-05-17T03:46:49.406Z,96
2019-05-17T03:47:53.166Z,108
2019-05-17T03:48:52.878Z,116
2019-05-17T03:49:58.211Z,124
2019-05-17T03:50:54.323Z,136
2019-05-17T03:51:53.473Z,144
2019-05-17T03:53:02.148Z,156
2019-05-17T03:53:58.551Z,168
2019-05-17T03:54:54.105Z,176
2019-05-17T03:55:54.781Z,184
2019-05-17T03:56:58.687Z,192
2019-05-17T03:58:02.612Z,212
2019-05-17T03:58:58.955Z,224
2019-05-17T03:59:57.993Z,228
2019-05-17T04:00:59.081Z,228
2019-05-17T04:02:03.002Z,236
2019-05-17T04:03:02.672Z,244
2019-05-17T04:04:04.069Z,264
2019-05-17T04:05:04.463Z,276
2019-05-17T04:06:04.207Z,272
2019-05-17T04:07:03.733Z,284
2019-05-17T04:08:08.937Z,308
2019-05-17T04:09:03.966Z,316
2019-05-17T04:10:04.596Z,308
2019-05-17T04:11:36.819Z,316
2019-05-17T04:12:08.800Z,336
2019-05-17T04:13:05.216Z,352
2019-05-17T04:14:09.140Z,352
2019-05-17T04:15:12.990Z,360
2019-05-17T04:16:14.740Z,384
2019-05-17T04:17:09.164Z,412
2019-05-17T04:18:12.982Z,452
2019-05-17T04:19:09.060Z,484
2019-05-17T04:20:09.344Z,528
2019-05-17T04:21:09.032Z,548
2019-05-17T04:22:09.596Z,584
2019-05-17T04:23:12.681Z,644
2019-05-17T04:24:12.382Z,684
2019-05-17T04:25:14.395Z,700
2019-05-17T04:26:13.250Z,712
2019-05-17T04:27:15.119Z,704
2019-05-17T04:28:13.982Z,676
2019-05-17T04:29:14.794Z,616
2019-05-17T04:30:18.392Z,620
2019-05-17T04:31:13.716Z,692
2019-05-17T04:32:18.443Z,784
2019-05-17T04:33:18.497Z,800
2019-05-17T04:34:22.211Z,756
2019-05-17T04:35:19.482Z,692
2019-05-17T04:36:18.749Z,676
2019-05-17T04:37:18.603Z,676
2019-05-17T04:38:18.795Z,652
2019-05-17T04:39:18.966Z,628
2019-05-17T04:40:23.054Z,648
2019-05-17T04:41:35.603Z,680
2019-05-17T04:42:22.414Z,692
2019-05-17T04:43:23.024Z,700
2019-05-17T04:44:23.849Z,728
2019-05-17T04:45:24.121Z,768
2019-05-17T04:46:23.992Z,820
2019-05-17T04:47:28.819Z,904
2019-05-17T04:48:24.570Z,984
2019-05-17T04:49:29.391Z,988
2019-05-17T04:50:28.632Z,956
2019-05-17T04:51:29.039Z,908
2019-05-17T04:52:28.386Z,908
2019-05-17T04:53:28.937Z,960
2019-05-17T04:54:29.220Z,1076
2019-05-17T04:55:29.642Z,1156
2019-05-17T04:56:33.941Z,1160
2019-05-17T04:57:34.203Z,1144
2019-05-17T04:58:34.272Z,1092
2019-05-17T04:59:39.430Z,1012
2019-05-17T05:00:34.193Z,964
2019-05-17T05:01:38.604Z,1020
2019-05-17T05:02:34.346Z,1132
2019-05-17T05:03:38.374Z,1204
2019-05-17T05:04:38.228Z,1232
2019-05-17T05:05:42.541Z,1344
2019-05-17T05:06:38.749Z,1452
2019-05-17T05:07:39.032Z,1476
2019-05-17T05:08:38.936Z,1476
2019-05-17T05:09:38.063Z,1592
2019-05-17T05:10:44.005Z,1656
2019-05-17T05:11:51.832Z,1664
2019-05-17T05:12:39.488Z,1528
2019-05-17T05:13:39.151Z,1340
2019-05-17T05:14:39.278Z,1356
2019-05-17T05:15:43.258Z,1604
2019-05-17T05:16:42.890Z,1716
2019-05-17T05:17:43.710Z,1732
2019-05-17T05:18:43.395Z,1644
2019-05-17T05:19:43.990Z,1432
2019-05-17T05:20:44.018Z,1368
2019-05-17T05:21:43.371Z,1424
2019-05-17T05:22:44.425Z,1480
2019-05-17T05:23:43.809Z,1616
2019-05-17T05:24:44.207Z,1608
2019-05-17T05:25:44.318Z,1440
2019-05-17T05:26:44.460Z,1424
2019-05-17T05:27:45.639Z,1524
2019-05-17T05:28:49.610Z,1664
2019-05-17T05:29:47.112Z,1792
2019-05-17T05:30:47.934Z,1756
2019-05-17T05:31:48.322Z,1700
2019-05-17T05:32:48.466Z,1660
2019-05-17T05:33:48.573Z,1788
2019-05-17T05:34:52.453Z,2012
2019-05-17T05:35:51.652Z,2016
2019-05-17T05:36:52.617Z,1940
2019-05-17T05:37:53.747Z,1840
2019-05-17T05:38:53.489Z,1744
2019-05-17T05:39:54.573Z,1748
2019-05-17T05:40:53.380Z,1840
2019-05-17T05:42:06.220Z,1748
2019-05-17T05:42:54.026Z,1744
2019-05-17T05:43:54.434Z,1808
2019-05-17T05:44:57.353Z,1752
2019-05-17T05:45:55.388Z,1632
2019-05-17T05:46:57.241Z,1592
2019-05-17T05:47:57.900Z,1656
2019-05-17T05:48:58.007Z,1736
2019-05-17T05:49:57.511Z,1828
2019-05-17T05:50:58.197Z,1888
2019-05-17T05:51:58.762Z,1892
2019-05-17T05:53:01.779Z,1928
2019-05-17T05:54:01.422Z,2004
2019-05-17T05:55:01.466Z,2064
2019-05-17T05:56:03.440Z,2200
2019-05-17T05:57:03.127Z,2140
2019-05-17T05:58:03.166Z,1920
2019-05-17T05:59:03.305Z,1972
2019-05-17T06:00:04.023Z,2300
2019-05-17T06:01:07.462Z,2340
2019-05-17T06:02:07.229Z,2108
2019-05-17T06:03:11.904Z,2168
2019-05-17T06:04:11.586Z,2324
2019-05-17T06:05:07.922Z,2496
2019-05-17T06:06:08.165Z,2500
2019-05-17T06:07:09.159Z,2428
2019-05-17T06:08:11.941Z,2408
2019-05-17T06:09:11.980Z,2480
2019-05-17T06:10:12.589Z,2428
2019-05-17T06:11:12.936Z,2352
2019-05-17T06:12:33.955Z,2396
2019-05-17T06:13:14.244Z,2256
2019-05-17T06:14:14.480Z,2060
2019-05-17T06:15:13.865Z,2020
2019-05-17T06:16:13.544Z,2072
2019-05-17T06:17:14.488Z,2264
2019-05-17T06:18:17.315Z,2212
2019-05-17T06:19:17.129Z,2168
2019-05-17T06:20:17.339Z,2284
2019-05-17T06:21:17.716Z,2104
2019-05-17T06:22:17.547Z,2072
2019-05-17T06:23:18.351Z,2164
2019-05-17T06:24:17.901Z,2240
2019-05-17T06:25:23.312Z,2288
2019-05-17T06:26:19.242Z,2600
2019-05-17T06:27:21.389Z,2684
2019-05-17T06:28:22.143Z,2516
2019-05-17T06:29:22.750Z,2624
2019-05-17T06:30:23.138Z,2540
2019-05-17T06:31:24.060Z,2628
2019-05-17T06:32:22.935Z,2820
2019-05-17T06:33:42.132Z,2440
2019-05-17T06:34:22.966Z,2572
2019-05-17T06:35:27.195Z,2696
2019-05-17T06:36:27.131Z,2916
2019-05-17T06:37:27.904Z,3248
2019-05-17T06:38:27.930Z,3468
2019-05-17T06:39:28.202Z,3620
2019-05-17T06:40:27.330Z,3484
2019-05-17T06:41:27.751Z,3372
2019-05-17T06:42:47.702Z,3364
2019-05-17T06:43:29.407Z,3784
2019-05-17T06:44:32.813Z,4356
2019-05-17T06:45:32.454Z,4140
2019-05-17T06:46:33.264Z,4164
2019-05-17T06:47:33.531Z,4240
2019-05-17T06:48:33.516Z,4152
2019-05-17T06:49:33.702Z,3900
2019-05-17T06:50:34.296Z,3880
2019-05-17T06:51:34.279Z,3596
2019-05-17T06:52:39.268Z,3488
2019-05-17T06:53:37.784Z,3708
2019-05-17T06:54:35.866Z,3952
2019-05-17T06:55:36.970Z,3836
2019-05-17T06:56:38.027Z,3848
2019-05-17T06:57:38.368Z,3944
2019-05-17T06:58:38.476Z,4908
2019-05-17T06:59:38.883Z,5180
2019-05-17T07:00:43.275Z,4480
2019-05-17T07:01:42.336Z,4488
2019-05-17T07:02:42.131Z,4704
2019-05-17T07:03:40.994Z,5216
2019-05-17T07:04:41.409Z,5464
2019-05-17T07:05:41.826Z,6636
2019-05-17T07:06:42.525Z,8148
2019-05-17T07:07:45.936Z,6672
2019-05-17T07:08:45.931Z,6156
2019-05-17T07:09:49.531Z,8680
2019-05-17T07:10:46.057Z,7240
2019-05-17T07:11:45.475Z,7328
2019-05-17T07:13:04.752Z,7500
2019-05-17T07:13:46.351Z,8256
2019-05-17T07:14:46.767Z,7952
2019-05-17T07:16:00.455Z,8256
2019-05-17T07:16:50.215Z,7240
2019-05-17T07:17:51.091Z,8844
2019-05-17T07:18:51.324Z,6688
2019-05-17T07:19:51.041Z,6008
2019-05-17T07:20:50.735Z,9388
2019-05-17T07:21:51.559Z,9780
2019-05-17T07:22:52.156Z,9448
2019-05-17T07:23:55.347Z,7656
2019-05-17T07:24:59.539Z,7964
2019-05-17T07:25:55.912Z,9880
2019-05-17T07:26:55.863Z,9680
2019-05-17T07:28:00.425Z,13092
2019-05-17T07:28:59.126Z,5468
2019-05-17T07:29:59.209Z,8008
2019-05-17T07:31:01.512Z,6652
2019-05-17T07:32:00.733Z,7448
2019-05-17T07:33:00.740Z,6360
2019-05-17T07:34:05.965Z,5444
2019-05-17T07:35:01.429Z,9304
2019-05-17T07:36:00.974Z,8612
2019-05-17T07:37:01.682Z,6264
2019-05-17T07:38:04.722Z,9284
2019-05-17T07:39:02.708Z,7048
2019-05-17T07:40:19.798Z,7848
2019-05-17T07:41:05.070Z,7920
2019-05-17T07:42:06.028Z,8788
2019-05-17T07:43:21.004Z,7992
2019-05-17T07:44:05.946Z,6580
2019-05-17T07:45:07.005Z,12076
2019-05-17T07:46:06.412Z,14272
2019-05-17T07:47:06.899Z,8580
2019-05-17T07:48:09.557Z,7664
2019-05-17T07:49:10.593Z,10972
2019-05-17T07:50:10.811Z,14752
2019-05-17T07:51:10.363Z,17120
2019-05-17T07:52:11.621Z,17280
2019-05-17T07:53:11.912Z,29568
2019-05-17T07:54:10.775Z,36192
2019-05-17T07:55:22.388Z,37248
2019-05-17T07:56:10.684Z,37120
2019-05-17T07:57:11.095Z,36896
2019-05-17T07:58:11.510Z,36800
2019-05-17T07:59:11.860Z,36096
2019-05-17T08:00:11.998Z,35200
2019-05-17T08:01:15.708Z,35296
2019-05-17T08:02:15.763Z,35360
2019-05-17T08:03:20.911Z,35232
2019-05-17T08:04:16.408Z,35296
2019-05-17T08:05:16.082Z,35904
2019-05-17T08:06:16.583Z,38368
2019-05-17T08:07:19.518Z,35904
2019-05-17T08:08:16.379Z,35104
2019-05-17T08:09:20.438Z,26720
2019-05-17T08:10:20.318Z,21664
2019-05-17T08:11:21.719Z,18464
2019-05-17T08:12:22.258Z,16416
2019-05-17T08:13:39.903Z,11096
2019-05-17T08:14:40.008Z,11628
2019-05-17T08:15:22.348Z,11368
2019-05-17T08:16:21.801Z,10152
2019-05-17T08:17:22.226Z,11404
2019-05-17T08:18:22.628Z,26080
2019-05-17T08:19:25.617Z,25472
2019-05-17T08:20:25.856Z,13948
2019-05-17T08:21:25.676Z,10400
2019-05-17T08:22:25.693Z,13192
2019-05-17T08:23:26.202Z,12272
2019-05-17T08:24:26.702Z,16864
2019-05-17T08:25:27.517Z,20096
2019-05-17T08:26:29.615Z,11908
2019-05-17T08:27:30.965Z,9644
2019-05-17T08:28:32.891Z,10164
2019-05-17T08:29:31.296Z,20736
2019-05-17T08:30:35.345Z,16480
2019-05-17T08:31:31.851Z,28320
2019-05-17T08:32:33.513Z,39104
2019-05-17T08:33:31.897Z,39072
2019-05-17T08:34:34.485Z,36832
2019-05-17T08:35:32.449Z,36352
2019-05-17T08:36:35.323Z,36096
2019-05-17T08:37:35.713Z,36128
2019-05-17T08:38:36.339Z,35136
2019-05-17T08:39:39.943Z,33344
2019-05-17T08:40:40.321Z,33248
2019-05-17T08:41:40.382Z,34560
2019-05-17T08:42:40.557Z,36768
2019-05-17T08:43:52.877Z,37504
2019-05-17T08:44:42.028Z,36608
2019-05-17T08:45:41.062Z,36448
2019-05-17T08:46:41.482Z,39296
2019-05-17T08:47:45.652Z,35936
2019-05-17T08:48:41.692Z,32288
2019-05-17T08:49:42.231Z,32864
2019-05-17T08:50:49.319Z,32608
2019-05-17T08:51:45.471Z,31552
2019-05-17T08:52:49.316Z,29984
2019-05-17T08:53:45.388Z,27744
2019-05-17T08:54:49.559Z,25888
2019-05-17T08:55:46.908Z,25120
2019-05-17T08:56:46.214Z,24928
2019-05-17T08:57:45.859Z,24928
2019-05-17T08:58:46.587Z,25728
2019-05-17T08:59:46.873Z,26688
2019-05-17T09:00:50.326Z,26912
2019-05-17T09:01:51.673Z,26080
2019-05-17T09:02:49.838Z,24832
2019-05-17T09:03:50.434Z,23808
2019-05-17T09:04:51.415Z,23008
2019-05-17T09:05:53.067Z,22176
2019-05-17T09:06:50.615Z,22112
2019-05-17T09:07:51.841Z,22400
2019-05-17T09:08:51.853Z,22848
2019-05-17T09:09:51.576Z,22880
2019-05-17T09:10:57.126Z,21984
2019-05-17T09:11:56.695Z,20480
2019-05-17T09:12:55.981Z,20000
2019-05-17T09:14:10.438Z,20672
2019-05-17T09:14:55.415Z,21120
2019-05-17T09:15:55.205Z,20512
2019-05-17T09:16:56.273Z,18464
2019-05-17T09:17:55.720Z,16896
2019-05-17T09:19:00.457Z,16128
2019-05-17T09:20:00.609Z,15072
2019-05-17T09:20:57.325Z,13888
2019-05-17T09:21:59.793Z,12768
2019-05-17T09:23:00.025Z,12588
2019-05-17T09:24:01.505Z,13408
2019-05-17T09:25:01.300Z,14464
2019-05-17T09:26:01.099Z,15616
2019-05-17T09:27:00.616Z,16000
2019-05-17T09:28:01.289Z,16256
2019-05-17T09:29:02.320Z,16640
2019-05-17T09:30:01.833Z,16736
2019-05-17T09:31:05.042Z,16672
2019-05-17T09:32:05.906Z,16608
2019-05-17T09:33:07.139Z,16928
2019-05-17T09:34:05.825Z,17376
2019-05-17T09:35:06.146Z,18240
2019-05-17T09:36:06.885Z,19648
2019-05-17T09:37:10.422Z,20352
2019-05-17T09:38:09.983Z,18432
2019-05-17T09:39:15.564Z,20320
2019-05-17T09:40:11.925Z,20256
2019-05-17T09:41:11.049Z,20352
2019-05-17T09:42:11.494Z,20448
2019-05-17T09:43:14.770Z,21376
2019-05-17T09:44:26.053Z,22144
2019-05-17T09:45:15.308Z,22656
2019-05-17T09:46:16.371Z,23136
2019-05-17T09:47:15.624Z,22720
2019-05-17T09:48:16.077Z,23104
2019-05-17T09:49:16.261Z,23776
2019-05-17T09:50:15.731Z,23456
2019-05-17T09:51:16.411Z,22656
2019-05-17T09:52:16.819Z,22176
2019-05-17T09:53:17.240Z,21856
2019-05-17T09:54:19.450Z,22016
2019-05-17T09:55:21.318Z,22592
2019-05-17T09:56:20.871Z,22720
2019-05-17T09:57:21.249Z,22240
2019-05-17T09:58:21.776Z,21792
2019-05-17T09:59:22.427Z,21696
2019-05-17T10:00:22.140Z,21920
2019-05-17T10:01:25.665Z,21824
2019-05-17T10:02:25.838Z,21952
2019-05-17T10:03:30.954Z,22464
2019-05-17T10:04:26.361Z,22368
2019-05-17T10:05:31.025Z,21760
2019-05-17T10:06:28.339Z,21408
2019-05-17T10:07:29.675Z,21088
2019-05-17T10:08:29.398Z,20800
2019-05-17T10:09:30.610Z,20320
2019-05-17T10:10:31.320Z,19744
2019-05-17T10:11:31.313Z,19584
2019-05-17T10:12:31.068Z,17344
2019-05-17T10:13:34.895Z,16896
2019-05-17T10:14:39.219Z,19200
2019-05-17T10:15:36.144Z,19232
2019-05-17T10:16:36.796Z,19424
2019-05-17T10:17:35.583Z,19520
2019-05-17T10:18:36.050Z,19168
2019-05-17T10:19:36.211Z,18720
2019-05-17T10:20:36.550Z,17664
2019-05-17T10:21:37.036Z,12596
2019-05-17T10:22:40.043Z,6500
2019-05-17T10:23:41.933Z,6764
2019-05-17T10:24:49.441Z,9056
2019-05-17T10:25:40.314Z,9888
2019-05-17T10:26:41.338Z,18048
2019-05-17T10:27:41.265Z,9696
2019-05-17T10:28:40.791Z,5832
2019-05-17T10:29:40.938Z,5556
2019-05-17T10:30:40.990Z,5720
2019-05-17T10:31:42.164Z,5884
2019-05-17T10:32:47.387Z,5988
2019-05-17T10:33:45.478Z,6648
2019-05-17T10:34:46.246Z,7252
2019-05-17T10:35:46.706Z,6292
2019-05-17T10:36:45.614Z,6440
2019-05-17T10:37:46.482Z,7244
2019-05-17T10:38:46.000Z,8260
2019-05-17T10:39:47.262Z,7988
2019-05-17T10:40:50.016Z,16992
2019-05-17T10:41:49.921Z,8604
2019-05-17T10:42:50.675Z,6912
2019-05-17T10:43:52.384Z,17056
2019-05-17T10:45:00.589Z,13824
2019-05-17T10:45:51.378Z,14400
2019-05-17T10:46:51.624Z,15040
2019-05-17T10:47:52.144Z,8920
2019-05-17T10:48:55.496Z,11644
2019-05-17T10:49:55.467Z,16224
2019-05-17T10:50:55.204Z,16576
2019-05-17T10:51:55.010Z,7148
2019-05-17T10:52:55.137Z,7124
2019-05-17T10:53:56.812Z,7940
2019-05-17T10:54:56.792Z,11756
2019-05-17T10:55:57.506Z,7256
2019-05-17T10:56:59.686Z,7492
2019-05-17T10:58:01.182Z,11260
2019-05-17T10:59:00.219Z,8696
2019-05-17T11:00:00.907Z,6124
2019-05-17T11:01:02.573Z,6164
2019-05-17T11:02:05.271Z,6080
2019-05-17T11:03:06.539Z,6060
2019-05-17T11:04:01.074Z,6184
2019-05-17T11:05:01.409Z,6220
2019-05-17T11:06:02.132Z,6288
2019-05-17T11:07:06.820Z,6616
2019-05-17T11:08:05.283Z,7032
2019-05-17T11:09:04.985Z,7624
2019-05-17T11:10:06.544Z,11236
2019-05-17T11:11:06.727Z,13184
2019-05-17T11:12:05.365Z,11380
2019-05-17T11:13:05.499Z,12896
2019-05-17T11:14:05.639Z,13440
2019-05-17T11:15:21.185Z,13632
2019-05-17T11:16:06.380Z,12800
2019-05-17T11:17:10.445Z,13152
2019-05-17T11:18:10.109Z,11168
2019-05-17T11:19:08.796Z,11000
2019-05-17T11:20:09.441Z,12320
2019-05-17T11:21:09.085Z,6796
2019-05-17T11:22:10.409Z,8912
2019-05-17T11:23:10.981Z,7120
2019-05-17T11:24:11.054Z,6600
2019-05-17T11:25:12.363Z,5924
2019-05-17T11:26:12.816Z,5560
2019-05-17T11:27:13.317Z,5196
2019-05-17T11:28:14.349Z,5164
2019-05-17T11:29:15.594Z,5368
2019-05-17T11:30:17.522Z,6096
2019-05-17T11:31:16.579Z,6592
2019-05-17T11:32:17.002Z,8476
2019-05-17T11:33:18.026Z,8752
2019-05-17T11:34:18.731Z,7784
2019-05-17T11:35:19.545Z,7124
2019-05-17T11:36:20.280Z,6648
2019-05-17T11:37:22.535Z,6268
2019-05-17T11:38:21.639Z,7244
2019-05-17T11:39:21.768Z,7044
2019-05-17T11:40:22.200Z,6452
2019-05-17T11:41:34.317Z,5796
2019-05-17T11:42:24.319Z,5976
2019-05-17T11:43:23.899Z,7028
2019-05-17T11:44:27.019Z,7508
2019-05-17T11:45:38.752Z,5632
2019-05-17T11:46:42.170Z,5816
2019-05-17T11:47:26.300Z,5848
2019-05-17T11:48:29.944Z,5732
2019-05-17T11:49:28.080Z,5552
2019-05-17T11:50:28.529Z,5368
2019-05-17T11:51:33.104Z,4928
2019-05-17T11:52:30.396Z,4648
2019-05-17T11:53:30.839Z,4460
2019-05-17T11:54:31.937Z,4428
2019-05-17T11:55:32.651Z,4420
2019-05-17T11:56:32.866Z,4420
2019-05-17T11:57:33.914Z,4436
2019-05-17T11:58:34.072Z,4516
2019-05-17T11:59:34.512Z,4732
2019-05-17T12:00:35.037Z,5008
2019-05-17T12:01:35.465Z,5364
2019-05-17T12:02:37.943Z,5692
2019-05-17T12:03:36.304Z,5996
2019-05-17T12:04:36.746Z,6272
2019-05-17T12:05:37.159Z,6336
2019-05-17T12:06:38.175Z,6528
2019-05-17T12:07:38.619Z,7240
2019-05-17T12:08:39.044Z,7864
2019-05-17T12:09:48.169Z,8492
2019-05-17T12:10:39.937Z,6504
2019-05-17T12:11:39.413Z,7904
2019-05-17T12:12:39.561Z,6600
2019-05-17T12:13:43.461Z,5428
2019-05-17T12:14:40.609Z,5208
2019-05-17T12:15:55.024Z,5148
2019-05-17T12:16:42.029Z,5132
2019-05-17T12:17:44.146Z,5052
2019-05-17T12:18:45.670Z,4936
2019-05-17T12:19:47.441Z,4836
2019-05-17T12:20:47.272Z,4756
2019-05-17T12:21:47.134Z,4768
2019-05-17T12:22:48.550Z,4924
2019-05-17T12:23:48.865Z,5172
2019-05-17T12:24:48.771Z,5860
2019-05-17T12:25:49.592Z,6144
2019-05-17T12:26:56.074Z,5464
2019-05-17T12:27:53.013Z,5192
2019-05-17T12:28:51.190Z,4884
2019-05-17T12:29:52.812Z,4516
2019-05-17T12:30:51.815Z,4232
2019-05-17T12:31:52.766Z,3964
2019-05-17T12:32:53.515Z,3696
2019-05-17T12:33:57.791Z,3496
2019-05-17T12:34:56.973Z,3412
2019-05-17T12:35:56.249Z,3440
2019-05-17T12:36:58.712Z,3484
2019-05-17T12:37:59.536Z,3520
2019-05-17T12:38:58.628Z,3564
2019-05-17T12:40:00.280Z,3652
2019-05-17T12:41:00.355Z,3784
2019-05-17T12:42:04.339Z,3928
2019-05-17T12:43:01.784Z,4044
2019-05-17T12:44:05.617Z,4088
2019-05-17T12:45:04.078Z,4140
2019-05-17T12:46:15.614Z,4192
2019-05-17T12:47:04.430Z,4232
2019-05-17T12:48:06.593Z,4188
2019-05-17T12:49:09.600Z,4120
2019-05-17T12:50:06.700Z,4052
2019-05-17T12:51:09.085Z,3952
2019-05-17T12:52:08.615Z,3880
2019-05-17T12:53:09.334Z,3840
2019-05-17T12:54:09.434Z,3876
2019-05-17T12:55:11.079Z,3980
2019-05-17T12:56:11.750Z,4024
2019-05-17T12:57:13.550Z,4120
2019-05-17T12:58:13.334Z,4252
2019-05-17T12:59:14.316Z,4336
2019-05-17T13:00:15.161Z,4412
2019-05-17T13:01:16.759Z,4416
2019-05-17T13:02:18.750Z,4408
2019-05-17T13:03:16.679Z,4416
2019-05-17T13:04:18.272Z,4352
2019-05-17T13:05:18.915Z,4324
2019-05-17T13:06:18.471Z,4312
2019-05-17T13:07:18.491Z,4472
2019-05-17T13:08:20.234Z,4584
2019-05-17T13:09:21.679Z,4824
2019-05-17T13:10:19.701Z,5072
2019-05-17T13:11:22.725Z,5452
2019-05-17T13:12:20.174Z,5836
2019-05-17T13:13:23.780Z,8508
2019-05-17T13:14:22.428Z,6272
2019-05-17T13:15:21.469Z,9164
2019-05-17T13:16:32.537Z,10636
2019-05-17T13:17:24.083Z,8864
2019-05-17T13:18:25.905Z,9768
2019-05-17T13:19:26.761Z,10244
2019-05-17T13:20:29.038Z,9740
2019-05-17T13:21:27.556Z,8612
2019-05-17T13:22:27.896Z,7348
2019-05-17T13:23:30.783Z,6608
2019-05-17T13:24:29.736Z,6300
2019-05-17T13:25:32.531Z,5896
2019-05-17T13:26:32.154Z,5536
2019-05-17T13:27:31.974Z,5316
2019-05-17T13:28:33.001Z,5196
2019-05-17T13:29:32.927Z,5168
2019-05-17T13:30:34.855Z,5052
2019-05-17T13:31:35.568Z,5096
2019-05-17T13:32:34.572Z,5332
2019-05-17T13:33:37.809Z,5616
2019-05-17T13:34:35.600Z,5932
2019-05-17T13:35:34.416Z,6436
2019-05-17T13:36:36.284Z,6440
2019-05-17T13:37:37.111Z,6644
2019-05-17T13:38:37.496Z,6524
2019-05-17T13:39:39.629Z,6492
2019-05-17T13:40:48.281Z,7272
2019-05-17T13:41:38.454Z,7500
2019-05-17T13:42:40.405Z,7156
2019-05-17T13:43:42.146Z,7100
2019-05-17T13:44:41.336Z,7184